createdAt,value
2023-05-02T00:06:02.623Z,3.43
2023-05-02T00:08:32.553Z,3.30
2023-05-02T00:11:02.424Z,3.03
2023-05-02T00:16:16.116Z,3.53
2023-05-02T00:18:46.085Z,3.30
2023-05-02T00:21:18.725Z,3.27
2023-05-02T00:23:56.966Z,3.17
2023-05-02T00:26:29.949Z,3.00
2023-05-02T00:29:05.023Z,2.97
2023-05-02T00:31:38.432Z,3.03
2023-05-02T00:34:08.644Z,3.30
2023-05-02T00:36:41.187Z,4.73
2023-05-02T00:39:11.173Z,4.73
2023-05-02T00:41:41.047Z,4.60
2023-05-02T00:44:11.469Z,4.03
2023-05-02T00:46:41.662Z,4.43
2023-05-02T00:49:14.650Z,4.93
2023-05-02T00:51:47.528Z,4.07
2023-05-02T00:54:18.421Z,3.90
2023-05-02T00:56:48.714Z,4.27
2023-05-02T00:59:19.883Z,4.73
2023-05-02T01:02:00.393Z,3.97
2023-05-02T01:04:45.717Z,3.90
2023-05-02T01:07:35.197Z,4.20
2023-05-02T01:10:19.531Z,3.80
2023-05-02T01:12:57.303Z,3.90
2023-05-02T01:15:28.284Z,5.17
2023-05-02T01:17:59.255Z,3.50
2023-05-02T01:20:32.553Z,3.00
2023-05-02T01:23:13.056Z,3.43
2023-05-02T01:25:59.000Z,3.10
2023-05-02T01:28:38.774Z,5.13
2023-05-02T01:31:11.676Z,4.13
2023-05-02T01:33:42.956Z,4.23
2023-05-02T01:36:14.101Z,5.00
2023-05-02T01:38:47.099Z,5.43
2023-05-02T01:41:18.207Z,5.50
2023-05-02T01:43:53.740Z,5.43
2023-05-02T01:46:28.272Z,4.83
2023-05-02T01:49:00.056Z,4.27
2023-05-02T01:51:33.501Z,5.27
2023-05-02T01:54:05.957Z,4.80
2023-05-02T01:56:38.843Z,4.83
2023-05-02T01:59:11.719Z,4.80
2023-05-02T02:01:46.601Z,4.43
2023-05-02T02:04:19.463Z,4.60
2023-05-02T02:06:54.105Z,4.37
2023-05-02T02:09:28.855Z,4.40
2023-05-02T02:12:06.340Z,4.60
2023-05-02T02:14:41.108Z,4.33
2023-05-02T02:17:19.431Z,3.60
2023-05-02T02:19:49.382Z,3.90
2023-05-02T02:22:23.007Z,3.70
2023-05-02T02:24:55.935Z,4.13
2023-05-02T02:27:25.910Z,4.20
2023-05-02T02:29:55.753Z,3.93
2023-05-02T02:32:28.260Z,3.50
2023-05-02T02:34:59.776Z,3.10
2023-05-02T02:37:34.413Z,3.30
2023-05-02T02:40:19.873Z,3.40
2023-05-02T02:42:58.934Z,3.00
2023-05-02T02:45:38.570Z,2.77
2023-05-02T02:48:22.839Z,2.80
2023-05-02T02:51:06.731Z,3.30
2023-05-02T02:53:46.586Z,2.80
2023-05-02T02:56:19.379Z,2.50
2023-05-02T02:58:53.294Z,2.77
2023-05-02T03:01:25.462Z,2.67
2023-05-02T03:04:00.282Z,3.03
2023-05-02T03:06:32.078Z,3.17
2023-05-02T03:09:01.939Z,3.17
2023-05-02T03:11:32.020Z,3.10
2023-05-02T03:14:01.868Z,2.73
2023-05-02T03:16:38.403Z,2.67
2023-05-02T03:19:12.514Z,3.00
2023-05-02T03:21:42.986Z,2.47
2023-05-02T03:24:12.846Z,2.00
2023-05-02T03:26:42.657Z,2.10
2023-05-02T03:29:12.498Z,2.13
2023-05-02T03:31:42.506Z,2.17
2023-05-02T03:34:14.972Z,2.10
2023-05-02T03:36:44.760Z,2.77
2023-05-02T03:39:14.565Z,2.00
2023-05-02T03:41:47.377Z,2.30
2023-05-02T03:44:17.205Z,2.00
2023-05-02T03:46:47.082Z,2.17
2023-05-02T03:49:19.954Z,1.80
2023-05-02T03:51:49.883Z,2.10
2023-05-02T03:54:19.686Z,2.30
2023-05-02T03:56:49.572Z,2.20
2023-05-02T03:59:19.451Z,2.73
2023-05-02T04:01:53.169Z,2.73
2023-05-02T04:04:25.731Z,2.23
2023-05-02T04:06:55.626Z,2.43
2023-05-02T04:09:25.723Z,2.20
2023-05-02T04:11:58.003Z,2.27
2023-05-02T04:14:27.884Z,2.67
2023-05-02T04:16:57.804Z,2.60
2023-05-02T04:19:30.596Z,2.70
2023-05-02T04:22:00.449Z,2.47
2023-05-02T04:24:30.538Z,2.60
2023-05-02T04:27:00.346Z,3.10
2023-05-02T04:29:30.228Z,2.87
2023-05-02T04:32:00.136Z,3.50
2023-05-02T04:34:34.163Z,3.10
2023-05-02T04:37:04.563Z,3.00
2023-05-02T04:39:34.378Z,3.67
2023-05-02T04:42:04.344Z,2.97
2023-05-02T04:44:34.523Z,2.80
2023-05-02T04:47:04.832Z,2.90
2023-05-02T04:49:37.324Z,2.87
2023-05-02T04:52:07.437Z,2.60
2023-05-02T04:54:37.586Z,2.90
2023-05-02T04:57:09.816Z,2.43
2023-05-02T04:59:40.084Z,2.73
2023-05-02T05:02:12.834Z,2.83
2023-05-02T05:04:46.052Z,3.77
2023-05-02T05:07:15.975Z,3.23
2023-05-02T05:09:45.931Z,3.33
2023-05-02T05:12:15.738Z,3.40
2023-05-02T05:14:45.570Z,2.63
2023-05-02T05:17:23.095Z,3.20
2023-05-02T05:19:55.501Z,3.07
2023-05-02T05:22:25.393Z,2.73
2023-05-02T05:24:56.084Z,3.30
2023-05-02T05:27:26.082Z,2.60
2023-05-02T05:29:56.229Z,3.13
2023-05-02T05:32:26.265Z,2.53
2023-05-02T05:34:59.168Z,2.80
2023-05-02T05:37:30.722Z,2.70
2023-05-02T05:40:00.881Z,3.50
2023-05-02T05:42:30.963Z,3.10
2023-05-02T05:45:00.924Z,2.63
2023-05-02T05:47:31.022Z,3.33
2023-05-02T05:50:04.122Z,3.00
2023-05-02T05:52:34.047Z,3.10
2023-05-02T05:55:04.603Z,3.50
2023-05-02T05:57:35.318Z,2.63
2023-05-02T06:00:05.352Z,2.40
2023-05-02T06:02:35.379Z,2.80
2023-05-02T06:05:08.799Z,3.03
2023-05-02T06:07:38.803Z,3.30
2023-05-02T06:10:12.546Z,3.00
2023-05-02T06:12:44.230Z,2.60
2023-05-02T06:15:14.495Z,2.70
2023-05-02T06:17:44.478Z,2.23
2023-05-02T06:20:18.728Z,2.80
2023-05-02T06:22:49.901Z,2.00
2023-05-02T06:25:19.954Z,2.70
2023-05-02T06:27:49.869Z,2.80
2023-05-02T06:30:19.916Z,2.73
2023-05-02T06:32:49.859Z,3.77
2023-05-02T06:35:22.318Z,3.03
2023-05-02T06:37:52.125Z,3.10
2023-05-02T06:40:22.170Z,2.90
2023-05-02T06:42:51.997Z,2.73
2023-05-02T06:45:22.101Z,2.60
2023-05-02T06:47:52.092Z,2.80
2023-05-02T06:50:24.613Z,2.60
2023-05-02T06:52:54.465Z,2.70
2023-05-02T06:55:27.475Z,2.87
2023-05-02T06:57:57.574Z,2.37
2023-05-02T07:00:27.509Z,2.80
2023-05-02T07:02:57.504Z,2.43
2023-05-02T07:05:35.344Z,2.70
2023-05-02T07:08:10.667Z,2.70
2023-05-02T07:10:40.533Z,2.43
2023-05-02T07:13:10.329Z,2.10
2023-05-02T07:15:40.228Z,2.13
2023-05-02T07:18:10.191Z,2.00
2023-05-02T07:20:45.079Z,2.00
2023-05-02T07:23:14.901Z,2.00
2023-05-02T07:25:45.143Z,2.40
2023-05-02T07:28:15.382Z,1.90
2023-05-02T07:30:45.527Z,1.70
2023-05-02T07:33:15.806Z,1.90
2023-05-02T07:35:48.464Z,1.57
2023-05-02T07:38:18.348Z,2.00
2023-05-02T07:40:48.637Z,1.73
2023-05-02T07:43:18.521Z,1.87
2023-05-02T07:45:48.496Z,1.50
2023-05-02T07:48:18.513Z,1.57
2023-05-02T07:50:51.120Z,1.60
2023-05-02T07:53:21.029Z,1.53
2023-05-02T07:55:52.422Z,1.60
2023-05-02T07:58:22.305Z,1.50
2023-05-02T08:00:52.298Z,1.30
2023-05-02T08:03:22.299Z,1.83
2023-05-02T08:05:57.206Z,1.50
2023-05-02T08:08:27.133Z,1.77
2023-05-02T08:10:57.026Z,1.70
2023-05-02T08:13:27.517Z,1.57
2023-05-02T08:15:58.777Z,1.40
2023-05-02T08:18:28.721Z,1.37
2023-05-02T08:21:01.505Z,1.67
2023-05-02T08:23:32.349Z,1.40
2023-05-02T08:26:02.191Z,2.03
2023-05-02T08:28:32.159Z,1.40
2023-05-02T08:31:02.073Z,1.30
2023-05-02T08:33:34.207Z,1.93
2023-05-02T08:36:13.949Z,1.30
2023-05-02T08:38:44.949Z,1.37
2023-05-02T08:41:15.405Z,1.40
2023-05-02T08:43:45.671Z,1.47
2023-05-02T08:46:17.599Z,1.60
2023-05-02T08:48:49.880Z,1.20
2023-05-02T08:51:22.930Z,1.10
2023-05-02T08:53:56.727Z,1.10
2023-05-02T08:56:26.597Z,1.40
2023-05-02T08:58:56.429Z,1.50
2023-05-02T09:01:27.326Z,1.07
2023-05-02T09:04:02.177Z,1.57
2023-05-02T09:06:37.109Z,1.40
2023-05-02T09:09:07.153Z,1.17
2023-05-02T09:11:37.287Z,1.23
2023-05-02T09:14:17.658Z,1.00
2023-05-02T09:16:47.993Z,1.33
2023-05-02T09:19:28.170Z,1.27
2023-05-02T09:22:05.643Z,1.50
2023-05-02T09:24:35.512Z,1.23
2023-05-02T09:27:07.416Z,1.20
2023-05-02T09:29:41.289Z,1.30
2023-05-02T09:32:11.292Z,1.60
2023-05-02T09:34:41.431Z,1.10
2023-05-02T09:37:15.426Z,1.33
2023-05-02T09:40:05.580Z,1.47
2023-05-02T09:42:36.519Z,1.27
2023-05-02T09:45:07.077Z,1.37
2023-05-02T09:47:37.350Z,1.37
2023-05-02T09:50:09.518Z,1.30
2023-05-02T09:52:42.217Z,1.20
2023-05-02T09:55:24.044Z,1.03
2023-05-02T09:57:56.184Z,1.00
2023-05-02T10:00:26.326Z,1.53
2023-05-02T10:02:56.415Z,1.30
2023-05-02T10:05:27.233Z,1.57
2023-05-02T10:08:05.011Z,1.40
2023-05-02T10:10:36.895Z,1.60
2023-05-02T10:13:08.074Z,1.47
2023-05-02T10:15:45.326Z,1.30
2023-05-02T10:18:29.767Z,1.27
2023-05-02T10:21:01.848Z,1.20
2023-05-02T10:23:38.690Z,1.17
2023-05-02T10:26:10.622Z,1.20
2023-05-02T10:28:47.907Z,0.90
2023-05-02T10:31:18.511Z,1.47
2023-05-02T10:33:56.679Z,1.40
2023-05-02T10:36:27.541Z,1.53
2023-05-02T10:39:00.992Z,1.33
2023-05-02T10:41:34.412Z,1.50
2023-05-02T10:44:08.019Z,1.10
2023-05-02T10:46:40.838Z,1.40
2023-05-02T10:49:13.728Z,1.60
2023-05-02T10:51:46.441Z,1.20
2023-05-02T10:54:26.387Z,1.33
2023-05-02T10:57:07.795Z,1.27
2023-05-02T10:59:39.776Z,1.50
2023-05-02T11:02:45.018Z,1.10
2023-05-02T11:05:15.091Z,0.93
2023-05-02T11:07:51.213Z,0.97
2023-05-02T11:10:33.227Z,0.90
2023-05-02T11:13:07.283Z,0.83
2023-05-02T11:15:59.662Z,0.73
2023-05-02T11:18:29.665Z,0.90
2023-05-02T11:21:39.981Z,0.70
2023-05-02T11:30:01.958Z,0.57
2023-05-02T11:33:16.160Z,0.70
2023-05-02T11:35:49.275Z,0.60
2023-05-02T11:38:25.178Z,0.70
2023-05-02T11:40:59.527Z,1.03
2023-05-02T11:43:33.753Z,0.77
2023-05-02T11:46:09.183Z,0.80
2023-05-02T11:48:41.418Z,1.00
2023-05-02T11:51:12.085Z,0.70
2023-05-02T11:53:46.024Z,0.70
2023-05-02T12:15:39.094Z,1.03
2023-05-02T12:18:10.827Z,0.87
2023-05-02T12:20:44.479Z,1.10
2023-05-02T12:23:17.656Z,0.83
2023-05-02T12:25:50.144Z,1.10
2023-05-02T12:28:26.132Z,1.37
2023-05-02T12:31:17.925Z,1.03
2023-05-02T12:33:50.145Z,1.17
2023-05-02T12:36:24.151Z,1.10
2023-05-02T12:38:59.928Z,1.00
2023-05-02T12:41:44.111Z,1.40
2023-05-02T12:44:14.064Z,1.30
2023-05-02T12:47:08.851Z,1.30
2023-05-02T12:49:55.058Z,1.00
2023-05-02T12:52:59.953Z,1.03
2023-05-02T12:55:41.725Z,0.90
2023-05-02T12:58:14.434Z,1.10
2023-05-02T13:00:48.201Z,0.87
2023-05-02T13:03:23.043Z,0.90
2023-05-02T13:06:11.367Z,1.00
2023-05-02T13:08:41.765Z,0.90
2023-05-02T13:11:16.180Z,0.73
2023-05-02T13:13:47.243Z,0.90
2023-05-02T13:17:26.926Z,1.17
2023-05-02T13:46:14.436Z,1.10
2023-05-02T13:49:33.612Z,0.93
2023-05-02T13:52:04.546Z,1.20
2023-05-02T13:54:38.203Z,0.93
2023-05-02T13:57:14.102Z,1.00
2023-05-02T14:18:12.002Z,1.13
2023-05-02T14:21:34.659Z,1.00
2023-05-02T14:24:07.442Z,0.90
2023-05-02T14:27:01.718Z,1.00
2023-05-02T14:29:44.409Z,1.07
2023-05-02T14:39:03.957Z,1.20
2023-05-02T14:41:33.855Z,0.80
2023-05-02T14:44:09.209Z,1.10
2023-05-02T14:46:42.895Z,1.13
2023-05-02T14:49:15.800Z,1.00
2023-05-02T14:51:47.849Z,1.17
2023-05-02T14:54:27.171Z,0.90
2023-05-02T14:57:00.029Z,1.03
2023-05-02T14:59:37.693Z,1.10
2023-05-02T15:02:08.832Z,1.00
2023-05-02T15:04:45.822Z,1.10
2023-05-02T15:07:17.467Z,1.20
2023-05-02T15:09:50.313Z,1.37
2023-05-02T15:12:20.500Z,1.17
2023-05-02T15:15:02.503Z,1.00
2023-05-02T15:17:33.946Z,1.00
2023-05-02T15:20:05.277Z,1.40
2023-05-02T15:22:35.369Z,1.20
2023-05-02T15:25:09.020Z,1.40
2023-05-02T15:27:39.005Z,1.73
2023-05-02T15:30:10.306Z,1.37
2023-05-02T15:32:40.287Z,0.97
2023-05-02T15:35:11.893Z,0.90
2023-05-02T15:37:41.753Z,1.10
2023-05-02T15:40:15.468Z,1.00
2023-05-02T15:42:45.324Z,1.53
2023-05-02T15:45:16.416Z,0.80
2023-05-02T15:47:47.057Z,1.03
2023-05-02T15:50:17.520Z,0.90
2023-05-02T15:52:47.774Z,0.80
2023-05-02T15:55:20.332Z,1.13
2023-05-02T15:57:52.032Z,1.20
2023-05-02T16:00:22.452Z,1.30
2023-05-02T16:02:52.276Z,1.20
2023-05-02T16:05:24.417Z,1.07
2023-05-02T16:07:54.290Z,1.00
2023-05-02T16:10:27.155Z,1.00
2023-05-02T16:12:57.179Z,1.40
2023-05-02T16:15:27.022Z,1.00
2023-05-02T16:17:56.864Z,1.00
2023-05-02T16:20:27.948Z,0.97
2023-05-02T16:22:57.886Z,1.10
2023-05-02T16:25:30.371Z,1.60
2023-05-02T16:28:01.994Z,1.00
2023-05-02T16:30:31.839Z,0.90
2023-05-02T16:33:01.880Z,1.00
2023-05-02T16:35:32.116Z,0.97
2023-05-02T16:38:02.003Z,1.03
2023-05-02T16:40:34.546Z,1.00
2023-05-02T16:43:04.417Z,1.00
2023-05-02T16:45:34.304Z,0.80
2023-05-02T16:48:05.062Z,0.93
2023-05-02T16:50:35.075Z,0.97
2023-05-02T16:53:05.111Z,1.00
2023-05-02T16:55:37.517Z,0.83
2023-05-02T16:58:07.349Z,1.00
2023-05-02T17:00:37.220Z,0.73
2023-05-02T17:03:08.216Z,1.03
2023-05-02T17:05:39.709Z,0.80
2023-05-02T17:08:10.922Z,0.80
2023-05-02T17:10:43.474Z,1.00
2023-05-02T17:13:13.314Z,1.00
2023-05-02T17:15:43.595Z,1.00
2023-05-02T17:18:13.556Z,1.23
2023-05-02T17:20:43.892Z,1.10
2023-05-02T17:23:13.717Z,0.90
2023-05-02T17:25:46.732Z,0.80
2023-05-02T17:28:17.075Z,0.93
2023-05-02T17:30:47.910Z,0.90
2023-05-02T17:33:17.803Z,0.93
2023-05-02T17:35:48.022Z,1.00
2023-05-02T17:38:17.887Z,1.13
2023-05-02T17:40:50.395Z,1.10
2023-05-02T17:43:22.579Z,0.90
2023-05-02T17:45:52.435Z,0.97
2023-05-02T17:48:22.328Z,0.97
2023-05-02T17:50:52.359Z,1.10
2023-05-02T17:53:28.008Z,1.00
2023-05-02T17:56:00.462Z,1.20
2023-05-02T17:58:30.338Z,1.20
2023-05-02T18:01:00.192Z,1.20
2023-05-02T18:03:30.243Z,1.03
2023-05-02T18:06:00.301Z,1.20
2023-05-02T18:08:31.425Z,1.70
2023-05-02T18:11:03.966Z,1.00
2023-05-02T18:13:36.965Z,1.03
2023-05-02T18:16:08.219Z,1.40
2023-05-02T18:18:39.020Z,1.53
2023-05-02T18:21:09.869Z,1.10
2023-05-02T18:23:41.948Z,1.30
2023-05-02T18:26:17.995Z,1.53
2023-05-02T18:28:53.481Z,1.10
2023-05-02T18:31:24.088Z,1.40
2023-05-02T18:33:56.804Z,1.50
2023-05-02T18:36:31.733Z,1.00
2023-05-02T18:39:01.611Z,1.27
2023-05-02T18:41:34.004Z,1.37
2023-05-02T18:44:08.424Z,1.17
2023-05-02T18:46:38.309Z,1.30
2023-05-02T18:49:09.392Z,1.10
2023-05-02T18:51:39.285Z,1.30
2023-05-02T18:54:09.125Z,1.30
2023-05-02T18:56:41.769Z,1.50
2023-05-02T18:59:12.121Z,1.00
2023-05-02T19:01:42.000Z,1.50
2023-05-02T19:04:18.748Z,1.37
2023-05-02T19:06:48.952Z,1.60
2023-05-02T19:09:19.660Z,1.10
2023-05-02T19:11:54.278Z,1.00
2023-05-02T19:14:24.232Z,1.13
2023-05-02T19:16:54.085Z,1.20
2023-05-02T19:19:23.935Z,1.20
2023-05-02T19:21:53.794Z,1.27
2023-05-02T19:24:23.722Z,1.30
2023-05-02T19:26:56.391Z,1.40
2023-05-02T19:29:26.402Z,1.43
2023-05-02T19:31:56.652Z,1.20
2023-05-02T19:34:27.507Z,1.20
2023-05-02T19:36:57.417Z,1.50
2023-05-02T19:39:28.659Z,1.13
2023-05-02T19:42:01.093Z,1.07
2023-05-02T19:44:32.004Z,1.10
2023-05-02T19:47:01.817Z,1.13
2023-05-02T19:49:33.914Z,1.17
2023-05-02T19:52:03.983Z,1.10
2023-05-02T19:54:33.868Z,1.00
2023-05-02T19:57:06.517Z,1.33
2023-05-02T19:59:36.437Z,1.20
2023-05-02T20:02:06.779Z,1.23
2023-05-02T20:04:43.609Z,1.20
2023-05-02T20:07:13.603Z,1.60
2023-05-02T20:09:44.470Z,1.20
2023-05-02T20:12:16.885Z,1.30
2023-05-02T20:14:46.690Z,1.10
2023-05-02T20:17:16.590Z,1.40
2023-05-02T20:19:46.418Z,1.20
2023-05-02T20:22:16.343Z,1.10
2023-05-02T20:24:46.250Z,1.20
2023-05-02T20:27:18.710Z,1.00
2023-05-02T20:29:48.555Z,1.13
2023-05-02T20:32:18.552Z,1.10
2023-05-02T20:34:48.548Z,1.40
2023-05-02T20:37:19.309Z,1.10
2023-05-02T20:39:49.164Z,1.10
2023-05-02T20:42:23.534Z,1.23
2023-05-02T20:44:57.710Z,1.10
2023-05-02T20:47:29.324Z,1.20
2023-05-02T20:49:59.949Z,1.20
2023-05-02T20:52:30.775Z,1.07
2023-05-02T20:55:01.788Z,1.23
2023-05-02T20:57:34.759Z,1.30
2023-05-02T21:00:05.082Z,1.10
2023-05-02T21:02:37.454Z,1.27
2023-05-02T21:05:10.265Z,1.47
2023-05-02T22:20:38.631Z,1.40
2023-05-02T22:23:35.790Z,1.10
2023-05-02T22:40:58.972Z,1.17
2023-05-02T22:43:35.606Z,1.00
2023-05-02T23:07:11.917Z,1.40
2023-05-02T23:20:38.583Z,1.33
2023-05-02T23:23:16.029Z,1.20
2023-05-02T23:26:04.323Z,1.40
2023-05-02T23:28:50.814Z,1.20
2023-05-02T23:32:12.805Z,1.60
